< < Back
Terminal Aerodrome Forecast


Current Version              Previous Versions:   1  2  3  4  5  6  7  8  9  

Terminal Aerodrome Forecast

318
FTUS42 KMLB 281459 AAA
TAFMCO
TAF AMD
KMCO 281459Z 2815/2912 21005KT P6SM FEW030 BKN300
     FM282000 17007KT P6SM VCTS SCT035CB BKN080
      TEMPO 2820/2823 3SM TSRA BKN030CB OVC050
     FM290000 18005KT P6SM SCT080 BKN120=

Latest METAR

665
SAUS70 KWBC 290100 RRM
MTRMCO
METAR KMCO 290053Z 14004KT 10SM SCT036 BKN095 OVC230 26/23 A2998 RMK AO2
SLP150 FRQ LTGICCC DSNT E-SE CB DSNT E-SE MOV SE
T02610228


USA.gov is the U.S. government's official web portal to all federal, state and local government web resources and services.